Time;durP1;ratioP1;P1;durP2;ratioP2;P2;SDS_P1;SDS_P2;PMS_P1;PMS_P2;Temp;Humidity;BMP_temperature;BMP_pressure;BME280_temperature;BME280_humidity;BME280_pressure;Samples;Min_cycle;Max_cycle;Signal;HPM_P1;HPM_P2
2022/07/22 00:00:09;;;;;;;13.20;3.40;;;16.10;99.90;;;;;;5102267;28;20494;-79
2022/07/22 00:02:38;;;;;;;8.00;2.40;;;16.10;99.90;;;;;;5082255;28;20115;-80
2022/07/22 00:05:04;;;;;;;9.07;2.72;;;16.10;99.90;;;;;;5088611;28;20172;-79
2022/07/22 00:07:29;;;;;;;7.97;2.50;;;16.10;99.90;;;;;;5109014;28;20044;-80
2022/07/22 00:09:55;;;;;;;11.32;2.47;;;16.10;99.90;;;;;;5107529;28;20039;-80
2022/07/22 00:12:21;;;;;;;8.70;2.40;;;16.10;99.90;;;;;;5103684;28;20032;-77
2022/07/22 00:14:52;;;;;;;11.90;2.80;;;16.40;99.90;;;;;;5081255;28;20054;-78
2022/07/22 00:17:18;;;;;;;8.52;2.47;;;15.90;99.90;;;;;;5106865;28;20092;-80
2022/07/22 00:19:43;;;;;;;9.60;3.05;;;16.90;99.90;;;;;;5084373;28;20119;-78
2022/07/22 00:22:10;;;;;;;14.38;2.45;;;16.20;99.90;;;;;;5102345;28;20044;-80
2022/07/22 00:24:36;;;;;;;8.65;2.33;;;16.20;99.90;;;;;;5085659;28;20059;-79
2022/07/22 00:27:02;;;;;;;7.22;2.00;;;16.20;99.90;;;;;;5094931;28;20112;-81
2022/07/22 00:29:27;;;;;;;9.80;1.80;;;16.10;99.90;;;;;;5106676;28;20036;-78
2022/07/22 00:31:56;;;;;;;8.48;1.63;;;16.10;99.90;;;;;;5084166;28;20131;-79
2022/07/22 00:34:21;;;;;;;3.38;1.70;;;16.20;99.90;;;;;;5101873;28;20071;-79
2022/07/22 00:36:50;;;;;;;6.28;1.73;;;16.10;99.90;;;;;;5097008;28;20102;-80
2022/07/22 00:39:16;;;;;;;11.93;2.00;;;16.10;99.90;;;;;;5079352;28;20127;-80
2022/07/22 00:41:41;;;;;;;10.77;1.83;;;16.10;99.90;;;;;;5095245;28;20126;-78
2022/07/22 00:44:08;;;;;;;12.43;2.20;;;16.10;99.90;;;;;;5082758;28;20047;-80
2022/07/22 00:46:36;;;;;;;9.90;2.03;;;16.10;99.90;;;;;;5100227;28;20028;-79
2022/07/22 00:49:04;;;;;;;11.20;2.22;;;16.00;99.90;;;;;;5096441;28;20514;-78
2022/07/22 00:51:31;;;;;;;9.98;1.60;;;15.30;99.90;;;;;;5101979;28;20049;-79
2022/07/22 00:53:58;;;;;;;7.55;2.20;;;16.00;99.90;;;;;;5096909;28;20491;-76
2022/07/22 00:56:27;;;;;;;11.48;2.30;;;16.00;99.90;;;;;;5082698;28;20075;-79
2022/07/22 00:58:55;;;;;;;7.00;1.70;;;16.10;99.90;;;;;;5099783;28;20036;-79
2022/07/22 01:01:21;;;;;;;9.07;2.22;;;15.90;99.90;;;;;;5095950;28;20048;-79
2022/07/22 01:03:52;;;;;;;7.55;1.80;;;15.90;99.90;;;;;;5080240;28;20100;-77
2022/07/22 01:06:18;;;;;;;8.35;1.77;;;15.90;99.90;;;;;;5106402;28;20092;-78
2022/07/22 01:08:45;;;;;;;6.15;2.05;;;15.90;99.90;;;;;;5096575;28;20561;-79
2022/07/22 01:11:16;;;;;;;10.32;2.00;;;15.80;99.90;;;;;;5102317;28;20035;-79
2022/07/22 01:13:43;;;;;;;6.15;1.85;;;15.80;99.90;;;;;;5084361;28;20051;-79
2022/07/22 01:16:10;;;;;;;3.97;1.45;;;15.80;99.90;;;;;;5105059;28;20035;-80
2022/07/22 01:18:37;;;;;;;10.73;1.80;;;16.00;99.90;;;;;;5097512;28;20039;-80
2022/07/22 01:21:07;;;;;;;6.28;1.48;;;15.80;99.90;;;;;;5097162;28;20051;-77
2022/07/22 01:23:33;;;;;;;7.40;1.65;;;15.80;99.90;;;;;;5099935;28;20458;-80
2022/07/22 01:25:59;;;;;;;7.97;1.42;;;15.70;99.90;;;;;;5097598;28;20102;-79
2022/07/22 01:28:25;;;;;;;8.05;1.83;;;15.80;99.90;;;;;;5076680;28;20047;-79
2022/07/22 01:30:51;;;;;;;4.65;1.38;;;15.90;99.90;;;;;;5099259;28;20505;-80
2022/07/22 01:33:18;;;;;;;5.78;1.30;;;16.80;99.90;;;;;;5103801;28;20697;-80
2022/07/22 01:35:48;;;;;;;7.28;1.38;;;15.80;99.90;;;;;;5098919;28;20044;-80
2022/07/22 01:38:17;;;;;;;5.30;1.05;;;15.70;99.90;;;;;;5096752;28;20483;-80
2022/07/22 01:40:43;;;;;;;5.50;1.63;;;15.70;99.90;;;;;;5094037;28;20040;-80
2022/07/22 01:43:09;;;;;;;6.47;1.52;;;15.80;99.90;;;;;;5097567;28;20075;-79
2022/07/22 01:45:35;;;;;;;7.28;1.02;;;16.60;99.90;;;;;;5081373;28;20054;-80
2022/07/22 01:48:02;;;;;;;8.32;1.98;;;15.80;99.90;;;;;;5097779;28;20077;-79
2022/07/22 01:50:28;;;;;;;5.95;1.25;;;15.40;99.90;;;;;;5095358;28;20042;-79
2022/07/22 01:52:53;;;;;;;4.45;1.40;;;15.70;99.90;;;;;;5076171;28;20035;-76
2022/07/22 01:55:22;;;;;;;7.03;1.05;;;16.10;99.90;;;;;;5102776;28;20489;-80
2022/07/22 01:57:47;;;;;;;6.68;2.28;;;15.70;99.90;;;;;;5094704;28;20050;-78
2022/07/22 02:00:14;;;;;;;5.65;1.25;;;15.80;99.90;;;;;;5098094;28;20035;-78
2022/07/22 02:02:40;;;;;;;9.88;1.65;;;15.70;99.90;;;;;;5079622;28;20046;-78
2022/07/22 02:05:06;;;;;;;5.95;1.23;;;15.70;99.90;;;;;;5099931;28;20031;-79
2022/07/22 02:07:32;;;;;;;4.55;0.98;;;15.80;99.90;;;;;;5082196;28;20429;-77
2022/07/22 02:09:58;;;;;;;6.03;1.25;;;15.80;99.90;;;;;;5102678;28;20052;-78
2022/07/22 02:12:24;;;;;;;7.47;1.73;;;15.80;99.90;;;;;;5100286;28;20054;-78
2022/07/22 02:14:49;;;;;;;6.97;1.42;;;15.70;99.90;;;;;;5093898;28;20036;-79
2022/07/22 02:17:15;;;;;;;9.55;1.77;;;15.70;99.90;;;;;;5093297;28;20496;-78
2022/07/22 02:19:41;;;;;;;6.90;1.67;;;15.70;99.90;;;;;;5094488;28;20051;-79
2022/07/22 02:22:07;;;;;;;5.20;1.65;;;15.60;99.90;;;;;;5075398;28;20052;-79
2022/07/22 02:24:33;;;;;;;9.32;1.73;;;15.70;99.90;;;;;;5094936;28;20116;-76
2022/07/22 02:26:59;;;;;;;9.85;1.80;;;15.70;99.90;;;;;;5100209;28;20105;-79
2022/07/22 02:29:25;;;;;;;3.58;0.98;;;15.70;99.90;;;;;;5101082;28;20058;-80
2022/07/22 02:31:51;;;;;;;5.18;1.00;;;15.70;99.90;;;;;;5097031;28;20505;-80
2022/07/22 02:34:22;;;;;;;4.07;1.17;;;16.10;99.90;;;;;;5095404;28;20048;-80
2022/07/22 02:36:48;;;;;;;4.65;1.25;;;15.80;99.90;;;;;;5095926;28;20044;-80
2022/07/22 02:39:14;;;;;;;5.18;1.17;;;15.70;99.90;;;;;;5103099;28;20065;-80
2022/07/22 02:41:42;;;;;;;7.07;1.30;;;15.70;99.90;;;;;;5076629;28;20047;-80
2022/07/22 02:44:07;;;;;;;7.53;1.35;;;15.70;99.90;;;;;;5082350;28;20061;-80
2022/07/22 02:46:33;;;;;;;6.10;1.40;;;15.70;99.90;;;;;;5100700;28;20043;-79
2022/07/22 02:48:59;;;;;;;6.63;1.55;;;15.70;99.90;;;;;;5061945;28;20395;-79
2022/07/22 02:51:24;;;;;;;6.15;1.33;;;15.80;99.90;;;;;;5099846;28;20050;-78
2022/07/22 02:53:55;;;;;;;3.63;0.80;;;16.00;99.90;;;;;;5079239;28;20055;-78
2022/07/22 02:56:21;;;;;;;6.90;1.40;;;15.70;99.90;;;;;;5075394;28;20476;-79
2022/07/22 02:58:52;;;;;;;7.68;1.15;;;15.70;99.90;;;;;;5077426;28;20063;-78
2022/07/22 03:01:19;;;;;;;10.07;1.85;;;16.00;99.90;;;;;;5098248;28;20496;-79
2022/07/22 03:03:44;;;;;;;5.45;1.33;;;15.70;99.90;;;;;;5105416;28;20126;-79
2022/07/22 03:06:10;;;;;;;5.43;1.23;;;15.70;99.90;;;;;;5078536;28;20123;-79
2022/07/22 03:08:36;;;;;;;5.63;1.60;;;15.70;99.90;;;;;;5099063;28;20385;-80
2022/07/22 03:11:03;;;;;;;8.65;1.70;;;15.70;99.90;;;;;;5098411;28;20040;-78
2022/07/22 03:13:29;;;;;;;4.32;1.40;;;15.60;99.90;;;;;;5098939;28;20042;-78
2022/07/22 03:15:55;;;;;;;4.78;1.67;;;15.60;99.90;;;;;;5080075;28;20134;-78
2022/07/22 03:18:21;;;;;;;5.60;1.15;;;15.60;99.90;;;;;;5097775;28;20467;-79
2022/07/22 03:20:50;;;;;;;6.38;1.25;;;15.60;99.90;;;;;;5098695;28;20070;-80
2022/07/22 03:23:16;;;;;;;8.65;1.45;;;15.60;99.90;;;;;;5103690;28;20112;-80
2022/07/22 03:25:41;;;;;;;6.30;1.40;;;15.60;99.90;;;;;;5103858;28;20048;-77
2022/07/22 03:28:07;;;;;;;9.05;1.35;;;15.60;99.90;;;;;;5083081;28;20101;-79
2022/07/22 03:30:33;;;;;;;3.13;1.50;;;15.50;99.90;;;;;;5100581;28;20135;-79
2022/07/22 03:33:23;;;;;;;6.30;1.55;;;15.50;99.90;;;;;;5106795;28;20040;-80
2022/07/22 03:35:52;;;;;;;5.22;1.15;;;15.50;99.90;;;;;;5084960;28;20470;-80
2022/07/22 03:38:18;;;;;;;6.18;1.30;;;15.60;99.90;;;;;;5090804;28;20127;-79
2022/07/22 03:40:43;;;;;;;9.00;1.63;;;15.60;99.90;;;;;;5085569;28;20476;-80
2022/07/22 03:43:09;;;;;;;6.50;1.60;;;15.60;99.90;;;;;;5102205;28;20043;-79
2022/07/22 03:45:35;;;;;;;4.88;1.23;;;15.60;99.90;;;;;;5102920;28;20123;-77
2022/07/22 03:48:00;;;;;;;5.28;2.03;;;16.50;99.90;;;;;;5103851;28;20085;-78
2022/07/22 03:50:29;;;;;;;5.47;1.08;;;16.40;99.90;;;;;;5087486;28;20425;-80
2022/07/22 03:52:54;;;;;;;6.50;1.08;;;15.50;99.90;;;;;;5081140;28;20071;-79
2022/07/22 03:55:27;;;;;;;9.07;1.48;;;16.50;99.90;;;;;;5105702;28;20071;-78
2022/07/22 03:57:53;;;;;;;4.85;0.98;;;15.50;99.90;;;;;;5067009;28;20424;-80
2022/07/22 04:00:18;;;;;;;5.60;1.40;;;15.50;99.90;;;;;;5085605;28;20108;-80
2022/07/22 04:02:53;;;;;;;6.57;1.92;;;15.50;99.90;;;;;;5106520;28;20044;-78
2022/07/22 04:05:18;;;;;;;5.13;1.58;;;15.80;99.90;;;;;;5105546;28;20043;-80
2022/07/22 04:07:56;;;;;;;3.33;0.98;;;15.50;99.90;;;;;;5102238;28;20456;-78
2022/07/22 04:10:22;;;;;;;7.32;1.20;;;15.50;99.90;;;;;;5106578;28;20035;-78
2022/07/22 04:12:48;;;;;;;5.03;1.35;;;15.50;99.90;;;;;;5077312;28;20155;-79
2022/07/22 04:15:20;;;;;;;10.05;1.20;;;16.50;99.90;;;;;;5099124;28;20040;-79
2022/07/22 04:17:48;;;;;;;7.65;1.55;;;15.40;99.90;;;;;;5084125;28;20047;-79
2022/07/22 04:20:17;;;;;;;9.70;1.52;;;15.40;99.90;;;;;;5062142;28;20109;-78
2022/07/22 04:22:43;;;;;;;5.10;1.02;;;15.50;99.90;;;;;;5082984;28;20036;-79
2022/07/22 04:25:09;;;;;;;6.18;1.25;;;15.50;99.90;;;;;;5081875;28;20551;-79
2022/07/22 04:27:35;;;;;;;6.05;1.55;;;16.40;99.90;;;;;;5078040;28;20043;-78
2022/07/22 04:30:01;;;;;;;2.85;0.75;;;15.40;99.90;;;;;;5081901;28;20063;-78
2022/07/22 04:32:27;;;;;;;4.82;1.02;;;15.50;99.90;;;;;;5084505;28;20044;-80
2022/07/22 04:34:53;;;;;;;4.05;0.90;;;15.50;99.90;;;;;;5076933;28;20047;-79
2022/07/22 04:37:21;;;;;;;5.30;0.93;;;15.40;99.90;;;;;;5077811;28;20040;-79
2022/07/22 04:39:48;;;;;;;8.30;1.08;;;15.50;99.90;;;;;;5079508;28;20048;-79
2022/07/22 04:42:23;;;;;;;7.00;0.80;;;16.20;99.90;;;;;;5079285;28;20090;-78
2022/07/22 04:44:48;;;;;;;7.60;1.10;;;15.50;99.90;;;;;;5085705;28;20127;-78
2022/07/22 04:47:20;;;;;;;5.40;1.45;;;15.50;99.90;;;;;;5057363;28;20064;-79
2022/07/22 04:49:46;;;;;;;2.67;0.90;;;15.40;99.90;;;;;;5083473;28;20530;-77
2022/07/22 04:52:11;;;;;;;4.90;0.85;;;15.40;99.90;;;;;;5080097;28;20049;-80
2022/07/22 04:54:37;;;;;;;5.70;1.27;;;15.40;99.90;;;;;;5083171;28;20126;-77
2022/07/22 04:57:03;;;;;;;3.47;0.70;;;15.50;99.90;;;;;;5093019;28;20036;-79
2022/07/22 04:59:29;;;;;;;7.07;1.10;;;15.50;99.90;;;;;;5061521;28;20035;-79
2022/07/22 05:01:56;;;;;;;4.93;1.13;;;15.50;99.90;;;;;;5079002;28;20439;-79
2022/07/22 05:04:21;;;;;;;5.20;1.10;;;15.60;99.90;;;;;;5075949;28;20086;-79
2022/07/22 05:06:55;;;;;;;3.10;0.93;;;15.50;99.90;;;;;;5084386;28;20273;-79
2022/07/22 05:09:21;;;;;;;4.03;1.15;;;15.60;99.90;;;;;;5083704;28;20048;-79
2022/07/22 05:11:50;;;;;;;5.28;1.02;;;15.50;99.90;;;;;;5082567;28;20051;-80
2022/07/22 05:14:16;;;;;;;2.28;0.80;;;15.60;99.90;;;;;;5087920;28;20051;-79
2022/07/22 05:16:41;;;;;;;4.65;0.95;;;16.70;99.90;;;;;;5088498;28;20044;-78
2022/07/22 05:19:07;;;;;;;3.83;1.02;;;15.90;99.90;;;;;;5083758;28;20039;-79
2022/07/22 05:21:33;;;;;;;5.05;1.40;;;15.50;99.90;;;;;;5095516;28;20052;-78
2022/07/22 05:23:58;;;;;;;8.07;1.15;;;16.60;99.90;;;;;;5107861;28;20051;-79
2022/07/22 05:26:24;;;;;;;10.13;5.22;;;15.60;99.90;;;;;;5103773;28;20043;-78
2022/07/22 05:28:53;;;;;;;8.48;3.45;;;15.60;99.90;;;;;;5101678;28;20035;-76
2022/07/22 05:31:19;;;;;;;6.45;1.77;;;15.60;99.90;;;;;;5107776;28;20040;-77
2022/07/22 05:33:44;;;;;;;6.47;1.20;;;15.60;99.90;;;;;;5099267;28;20046;-77
2022/07/22 05:36:10;;;;;;;8.30;1.40;;;15.60;99.90;;;;;;5094334;28;20064;-81
2022/07/22 05:38:36;;;;;;;5.68;0.98;;;15.60;99.90;;;;;;5079371;28;20495;-76
2022/07/22 05:41:02;;;;;;;9.70;1.65;;;15.70;99.90;;;;;;5089029;28;20113;-77
2022/07/22 05:43:46;;;;;;;8.77;1.73;;;17.10;99.90;;;;;;5104434;28;20502;-77
2022/07/22 05:46:14;;;;;;;3.67;1.13;;;15.90;99.90;;;;;;5085808;28;20047;-78
2022/07/22 05:48:43;;;;;;;6.82;1.20;;;15.60;99.90;;;;;;5086670;28;20395;-78
2022/07/22 05:51:19;;;;;;;6.57;1.38;;;16.80;99.90;;;;;;5086276;28;20502;-77
2022/07/22 05:53:50;;;;;;;4.07;1.05;;;15.40;99.90;;;;;;5100845;28;20112;-78
2022/07/22 05:56:16;;;;;;;3.05;0.82;;;15.40;99.90;;;;;;5102321;28;20039;-78
2022/07/22 05:59:20;;;;;;;8.93;1.30;;;15.70;99.90;;;;;;5068855;22;20061;-81
2022/07/22 06:01:48;;;;;;;8.33;1.03;;;15.70;99.90;;;;;;4965787;28;20054;-79
2022/07/22 06:04:21;;;;;;;6.55;1.52;;;15.70;99.90;;;;;;4952025;28;20430;-79
2022/07/22 06:06:48;;;;;;;7.28;1.33;;;15.70;99.90;;;;;;4964413;28;20391;-77
2022/07/22 06:09:14;;;;;;;5.28;1.40;;;17.20;99.90;;;;;;4947980;28;20070;-77
2022/07/22 06:11:40;;;;;;;8.52;3.65;;;15.70;99.90;;;;;;4963552;28;20119;-78
2022/07/22 06:14:05;;;;;;;7.32;2.35;;;15.70;99.90;;;;;;5033760;28;20138;-79
2022/07/22 06:16:32;;;;;;;7.82;1.83;;;15.70;99.90;;;;;;5026865;28;20060;-78
2022/07/22 06:18:58;;;;;;;9.73;1.20;;;15.80;99.90;;;;;;5043036;28;20045;-77
2022/07/22 06:21:23;;;;;;;4.78;1.10;;;16.10;99.90;;;;;;5045927;28;20046;-77
2022/07/22 06:23:49;;;;;;;6.07;1.23;;;15.80;99.90;;;;;;5022644;28;20087;-80
2022/07/22 06:26:48;;;;;;;;;;;;;;;;;;;;;
2022/07/22 06:29:40;;;;;;;5.15;0.70;;;15.90;99.90;;;;;;4331964;28;10000793;-79
2022/07/22 06:32:10;;;;;;;5.47;1.30;;;16.00;99.90;;;;;;5044378;28;20025;-77
2022/07/22 06:34:36;;;;;;;6.88;1.10;;;16.90;99.90;;;;;;5026783;28;20041;-80
2022/07/22 06:37:01;;;;;;;8.07;1.08;;;15.90;99.90;;;;;;5047934;28;20395;-79
2022/07/22 06:39:27;;;;;;;3.80;1.23;;;16.00;99.90;;;;;;5050538;28;20032;-79
2022/07/22 06:41:53;;;;;;;5.97;1.08;;;15.90;99.90;;;;;;5020879;28;20037;-77
2022/07/22 06:44:18;;;;;;;7.40;0.95;;;16.60;99.90;;;;;;5031647;28;20048;-79
2022/07/22 06:46:47;;;;;;;5.35;1.08;;;16.00;99.90;;;;;;5031527;28;20535;-78
2022/07/22 06:49:14;;;;;;;9.00;1.25;;;16.00;99.90;;;;;;5047437;28;20050;-77
2022/07/22 06:51:40;;;;;;;8.07;0.90;;;16.70;99.90;;;;;;5031616;28;20068;-79
2022/07/22 06:54:05;;;;;;;8.38;1.17;;;16.00;99.90;;;;;;5010195;28;20501;-75
2022/07/22 06:56:31;;;;;;;6.32;0.63;;;16.10;99.90;;;;;;5033094;28;20075;-78
2022/07/22 06:58:57;;;;;;;7.97;1.45;;;16.00;99.90;;;;;;5041337;28;20060;-75
2022/07/22 07:01:22;;;;;;;4.78;1.10;;;16.20;99.90;;;;;;5050025;28;20505;-76
2022/07/22 07:03:48;;;;;;;7.10;1.23;;;16.30;99.90;;;;;;5031956;28;20045;-77
2022/07/22 07:06:24;;;;;;;7.38;1.30;;;16.10;99.90;;;;;;5013973;28;20072;-77
2022/07/22 07:11:47;;;;;;;6.47;1.08;;;16.10;99.90;;;;;;5043490;28;20055;-77
2022/07/22 07:14:16;;;;;;;6.47;0.93;;;16.20;99.90;;;;;;5033198;28;20412;-80
2022/07/22 07:16:48;;;;;;;8.30;1.00;;;17.20;99.90;;;;;;5047931;28;20053;-77
2022/07/22 07:19:13;;;;;;;4.65;1.08;;;16.30;99.90;;;;;;5030923;28;20128;-77
2022/07/22 07:21:41;;;;;;;6.32;1.02;;;16.30;99.90;;;;;;5053059;28;20140;-75
2022/07/22 07:24:07;;;;;;;7.32;1.52;;;16.60;99.90;;;;;;5045831;28;20167;-79
2022/07/22 07:26:43;;;;;;;6.20;0.85;;;16.40;99.90;;;;;;5042292;28;20057;-76
2022/07/22 07:29:09;;;;;;;5.47;1.20;;;16.40;99.90;;;;;;5021882;28;20045;-77
2022/07/22 07:31:34;;;;;;;4.03;1.40;;;16.40;99.90;;;;;;5048229;28;20041;-79
2022/07/22 07:34:00;;;;;;;3.78;0.90;;;16.50;99.90;;;;;;5047425;28;20040;-78
2022/07/22 07:36:26;;;;;;;2.78;0.93;;;16.40;99.90;;;;;;5049819;28;20052;-78
2022/07/22 07:38:52;;;;;;;7.07;1.33;;;16.40;99.90;;;;;;5042695;28;20045;-80
2022/07/22 07:41:18;;;;;;;4.68;0.85;;;16.50;99.90;;;;;;5050615;28;20048;-75
2022/07/22 07:43:49;;;;;;;6.15;0.80;;;16.50;99.90;;;;;;5033066;28;20045;-74
2022/07/22 07:46:17;;;;;;;7.53;1.33;;;16.50;99.90;;;;;;5049260;28;20068;-75
2022/07/22 07:48:43;;;;;;;7.20;0.75;;;16.60;99.90;;;;;;5047416;28;20068;-84
2022/07/22 07:51:11;;;;;;;3.47;1.08;;;17.80;99.90;;;;;;5035143;28;20506;-88
2022/07/22 07:53:38;;;;;;;7.38;0.90;;;16.60;99.90;;;;;;5047000;28;20073;-87
2022/07/22 07:56:03;;;;;;;7.57;1.05;;;16.50;99.90;;;;;;5024705;28;20060;-86
2022/07/22 07:58:32;;;;;;;4.95;1.08;;;16.60;99.90;;;;;;5045637;28;20056;-76
2022/07/22 08:00:58;;;;;;;4.40;0.82;;;16.60;99.90;;;;;;5050073;28;20124;-78
2022/07/22 08:03:24;;;;;;;5.80;0.90;;;16.50;99.90;;;;;;5030168;28;20041;-75
2022/07/22 08:05:50;;;;;;;6.05;0.85;;;16.50;99.90;;;;;;5045970;28;20044;-75
2022/07/22 08:08:16;;;;;;;3.72;0.90;;;16.60;99.90;;;;;;5044301;28;20063;-75
2022/07/22 08:10:43;;;;;;;5.45;0.85;;;16.60;99.90;;;;;;5025887;28;20120;-74
2022/07/22 08:13:09;;;;;;;3.78;1.20;;;16.60;99.90;;;;;;5022672;28;21119;-73
2022/07/22 08:15:37;;;;;;;4.53;0.63;;;16.70;99.90;;;;;;5028828;28;20048;-74
2022/07/22 08:18:03;;;;;;;5.80;0.80;;;17.00;99.90;;;;;;5041118;28;20052;-73
2022/07/22 08:20:29;;;;;;;5.15;1.20;;;16.70;99.90;;;;;;5041174;28;20041;-75
2022/07/22 08:22:55;;;;;;;2.30;0.70;;;16.70;99.90;;;;;;5044141;28;20374;-74
2022/07/22 08:25:21;;;;;;;3.55;0.57;;;16.70;99.90;;;;;;5027681;28;20055;-74
2022/07/22 08:27:53;;;;;;;4.85;0.70;;;16.70;99.90;;;;;;5043259;28;20068;-74
2022/07/22 08:30:19;;;;;;;2.30;0.85;;;16.80;99.90;;;;;;5049938;28;20045;-75
2022/07/22 08:32:48;;;;;;;4.22;0.80;;;16.70;99.90;;;;;;5043642;28;21779;-75
2022/07/22 08:35:31;;;;;;;3.55;0.68;;;16.80;99.90;;;;;;5028390;28;20481;-75
2022/07/22 08:37:57;;;;;;;4.20;1.10;;;16.80;99.90;;;;;;5049006;28;20072;-76
2022/07/22 08:40:24;;;;;;;3.30;0.88;;;16.80;99.90;;;;;;5046304;28;20072;-77
2022/07/22 08:42:51;;;;;;;3.90;0.43;;;16.80;99.90;;;;;;5029132;28;20041;-76
2022/07/22 08:45:18;;;;;;;3.38;0.68;;;16.80;99.90;;;;;;5047400;28;20037;-75
2022/07/22 08:47:46;;;;;;;6.28;0.82;;;16.80;99.90;;;;;;5004337;28;20537;-75
2022/07/22 08:50:23;;;;;;;5.05;1.05;;;16.80;99.90;;;;;;5044750;28;20041;-75
2022/07/22 08:53:07;;;;;;;5.68;0.98;;;16.80;99.90;;;;;;5047111;28;20047;-75
2022/07/22 08:55:33;;;;;;;5.20;0.70;;;16.80;99.90;;;;;;5043067;28;20081;-75
2022/07/22 08:57:59;;;;;;;8.55;1.10;;;16.80;99.90;;;;;;4997263;28;20574;-75
2022/07/22 09:00:24;;;;;;;12.15;1.10;;;16.80;99.90;;;;;;5045460;28;20048;-76
2022/07/22 09:02:53;;;;;;;4.07;0.70;;;16.80;99.90;;;;;;5024630;28;20477;-74
2022/07/22 09:05:19;;;;;;;8.30;0.90;;;16.80;99.90;;;;;;5043230;28;20045;-76
2022/07/22 09:07:46;;;;;;;1.65;0.50;;;16.80;99.90;;;;;;5040409;28;20071;-76
2022/07/22 09:10:18;;;;;;;2.92;0.70;;;16.80;99.90;;;;;;5042862;28;20049;-74
2022/07/22 09:12:51;;;;;;;5.68;0.60;;;16.80;99.90;;;;;;5042569;28;20034;-76
2022/07/22 09:15:37;;;;;;;7.15;0.57;;;17.50;99.90;;;;;;5007458;28;20075;-77
2022/07/22 09:18:04;;;;;;;4.25;0.73;;;16.80;99.90;;;;;;5032896;28;20045;-76
2022/07/22 09:20:32;;;;;;;2.15;0.60;;;16.80;99.90;;;;;;5043633;28;20394;-75
2022/07/22 09:22:58;;;;;;;5.85;0.82;;;16.80;99.90;;;;;;5043025;28;20045;-76
2022/07/22 09:25:26;;;;;;;2.75;0.35;;;16.80;99.90;;;;;;5030938;28;20045;-75
2022/07/22 09:28:07;;;;;;;3.72;0.65;;;16.90;99.90;;;;;;5039330;28;20048;-75
2022/07/22 09:30:41;;;;;;;2.25;0.50;;;16.90;99.90;;;;;;5042937;28;20045;-76
2022/07/22 09:33:08;;;;;;;4.25;0.20;;;16.90;99.90;;;;;;5044769;28;20535;-75
2022/07/22 09:35:34;;;;;;;4.38;0.50;;;16.90;99.90;;;;;;5013182;28;20493;-76
2022/07/22 09:38:04;;;;;;;2.35;0.68;;;16.90;99.90;;;;;;5045742;28;20071;-75
2022/07/22 09:40:34;;;;;;;5.10;0.60;;;16.90;99.90;;;;;;5043812;28;20041;-76
2022/07/22 09:43:05;;;;;;;2.35;0.43;;;16.90;99.90;;;;;;5024201;28;20057;-76
2022/07/22 09:45:53;;;;;;;4.97;0.40;;;16.90;99.90;;;;;;5041220;28;20473;-76
2022/07/22 09:48:23;;;;;;;1.33;0.20;;;17.00;99.90;;;;;;5031021;28;20048;-77
2022/07/22 09:50:50;;;;;;;4.57;0.60;;;17.00;99.90;;;;;;5047473;28;20047;-77
2022/07/22 09:53:30;;;;;;;1.92;0.22;;;17.00;99.90;;;;;;4697238;28;10000007;-76
2022/07/22 09:56:00;;;;;;;1.60;0.20;;;17.10;99.90;;;;;;5043029;28;20052;-76
2022/07/22 09:58:29;;;;;;;1.35;0.30;;;17.10;99.90;;;;;;5040221;28;20049;-77
2022/07/22 10:00:59;;;;;;;2.22;0.30;;;17.20;99.90;;;;;;5026466;28;20057;-75
2022/07/22 10:03:31;;;;;;;1.83;0.28;;;17.20;99.90;;;;;;5023320;28;20029;-76
2022/07/22 10:06:02;;;;;;;1.65;0.22;;;17.30;99.90;;;;;;5007098;28;20040;-75
2022/07/22 10:08:30;;;;;;;0.32;0.20;;;17.30;99.90;;;;;;5011551;28;20515;-75
2022/07/22 10:11:03;;;;;;;2.25;0.28;;;17.30;99.90;;;;;;5026230;28;20054;-76
2022/07/22 10:13:30;;;;;;;1.58;0.38;;;17.40;99.90;;;;;;5041935;28;20076;-76
2022/07/22 10:16:00;;;;;;;1.00;0.40;;;17.40;99.90;;;;;;5034438;28;20214;-77
2022/07/22 10:18:29;;;;;;;3.55;0.68;;;17.50;99.90;;;;;;5041186;28;20094;-75
2022/07/22 10:21:06;;;;;;;5.72;0.55;;;17.60;99.90;;;;;;5038784;28;20045;-75
2022/07/22 10:23:33;;;;;;;3.45;0.55;;;17.60;99.90;;;;;;5019018;28;20072;-76
2022/07/22 10:26:01;;;;;;;5.10;0.70;;;17.60;99.90;;;;;;5027417;28;20045;-77
2022/07/22 10:28:30;;;;;;;2.03;0.60;;;18.20;99.90;;;;;;5037168;28;20056;-77
2022/07/22 10:31:24;;;;;;;5.35;0.65;;;17.60;99.90;;;;;;5041183;28;20500;-77
2022/07/22 10:34:09;;;;;;;5.10;0.70;;;17.60;99.90;;;;;;5032156;28;20127;-75
2022/07/22 10:36:42;;;;;;;4.18;0.80;;;17.60;99.90;;;;;;5043270;28;20033;-75
2022/07/22 10:39:18;;;;;;;4.13;0.50;;;17.60;99.90;;;;;;5022936;28;20064;-74
2022/07/22 10:41:47;;;;;;;2.17;0.55;;;18.40;99.90;;;;;;5040592;28;20052;-76
2022/07/22 10:44:13;;;;;;;3.33;0.57;;;17.50;99.90;;;;;;5029172;28;20045;-77
2022/07/22 10:46:58;;;;;;;3.13;0.95;;;17.60;99.90;;;;;;5021186;28;20040;-76
2022/07/22 10:49:25;;;;;;;3.95;0.70;;;17.60;99.90;;;;;;5038450;28;20049;-76
2022/07/22 10:52:20;;;;;;;2.35;0.80;;;18.10;99.90;;;;;;5042290;28;20040;-75
2022/07/22 10:55:23;;;;;;;4.22;0.47;;;17.60;99.90;;;;;;5024837;28;20229;-76
2022/07/22 10:57:49;;;;;;;2.20;0.60;;;17.70;99.90;;;;;;5032947;28;20672;-76
2022/07/22 11:00:24;;;;;;;1.75;0.30;;;17.70;99.90;;;;;;5039881;28;20556;-76
2022/07/22 11:02:50;;;;;;;4.47;0.35;;;17.60;99.90;;;;;;5030213;28;20501;-76
2022/07/22 11:05:30;;;;;;;1.55;0.30;;;17.70;99.90;;;;;;5019846;28;20044;-76
2022/07/22 11:07:55;;;;;;;1.58;0.20;;;17.80;99.90;;;;;;5034052;28;20030;-75
2022/07/22 11:10:21;;;;;;;1.60;0.30;;;18.70;99.90;;;;;;5039787;28;20110;-77
2022/07/22 11:12:50;;;;;;;1.38;0.13;;;17.80;99.90;;;;;;5020987;28;20041;-75
2022/07/22 11:15:16;;;;;;;5.07;0.50;;;17.80;99.90;;;;;;5047019;28;20231;-77
2022/07/22 11:17:42;;;;;;;0.77;0.25;;;17.90;99.90;;;;;;5007762;28;20124;-76
2022/07/22 11:20:10;;;;;;;4.57;0.43;;;18.40;99.90;;;;;;5046161;28;20037;-75
2022/07/22 11:22:36;;;;;;;2.20;0.50;;;17.90;99.90;;;;;;4998991;28;20049;-76
2022/07/22 11:25:07;;;;;;;4.60;0.60;;;18.00;99.90;;;;;;5028945;28;20383;-77
2022/07/22 11:27:33;;;;;;;4.68;0.60;;;18.00;99.90;;;;;;5029269;28;20510;-74
2022/07/22 11:29:59;;;;;;;5.05;0.63;;;18.00;99.90;;;;;;5025010;28;20049;-76
2022/07/22 11:32:30;;;;;;;1.48;0.30;;;18.00;99.90;;;;;;5010186;28;20386;-74
2022/07/22 11:34:56;;;;;;;6.00;0.68;;;18.10;99.90;;;;;;5018418;28;20099;-75
2022/07/22 11:37:23;;;;;;;6.50;0.52;;;19.10;99.90;;;;;;5046427;28;20044;-77
2022/07/22 11:39:59;;;;;;;3.83;0.77;;;18.10;99.90;;;;;;5006963;28;20076;-76
2022/07/22 11:42:25;;;;;;;1.90;0.30;;;18.10;99.90;;;;;;5021640;28;20057;-76
2022/07/22 11:44:54;;;;;;;1.95;0.60;;;18.10;99.90;;;;;;5043889;28;20037;-76
2022/07/22 11:47:23;;;;;;;2.15;0.30;;;18.30;99.90;;;;;;5029751;28;20583;-76
2022/07/22 11:49:48;;;;;;;2.72;0.30;;;18.10;99.90;;;;;;5042428;28;20049;-76
2022/07/22 11:52:18;;;;;;;3.53;0.40;;;18.20;99.90;;;;;;5026880;28;20045;-76
2022/07/22 11:54:53;;;;;;;5.28;0.50;;;18.00;99.90;;;;;;5047791;28;20044;-76
2022/07/22 11:57:19;;;;;;;1.80;0.30;;;18.00;99.90;;;;;;5014841;28;20051;-75
2022/07/22 11:59:46;;;;;;;2.17;0.15;;;18.00;99.90;;;;;;5040981;28;20046;-76
2022/07/22 12:02:18;;;;;;;3.97;0.40;;;18.00;99.90;;;;;;5038846;28;20049;-76
2022/07/22 12:04:46;;;;;;;2.58;0.20;;;18.00;99.90;;;;;;5039711;28;20417;-79
2022/07/22 12:07:18;;;;;;;2.85;0.20;;;18.10;99.90;;;;;;5025826;28;20060;-78
2022/07/22 12:09:53;;;;;;;1.42;0.30;;;18.40;99.90;;;;;;5022018;28;20064;-77
2022/07/22 12:12:18;;;;;;;2.35;0.20;;;18.20;99.90;;;;;;5024764;28;20040;-76
2022/07/22 12:14:47;;;;;;;0.98;0.30;;;18.20;99.90;;;;;;5040996;28;20053;-78
2022/07/22 12:17:27;;;;;;;2.63;0.22;;;18.30;99.90;;;;;;4995421;28;20408;-76
2022/07/22 12:19:53;;;;;;;0.70;0.10;;;18.50;99.90;;;;;;5040778;28;20056;-76
2022/07/22 12:22:26;;;;;;;2.35;0.50;;;18.80;99.90;;;;;;5043322;28;20045;-78
2022/07/22 12:25:01;;;;;;;1.25;0.20;;;18.40;99.90;;;;;;5049432;28;20044;-76
2022/07/22 12:27:26;;;;;;;2.90;0.30;;;18.40;99.90;;;;;;5050857;28;20102;-78
2022/07/22 12:29:52;;;;;;;0.60;0.10;;;18.30;99.90;;;;;;5053245;28;20455;-80
2022/07/22 12:32:26;;;;;;;1.23;0.25;;;18.40;99.90;;;;;;5012604;28;20045;-80
2022/07/22 12:35:00;;;;;;;1.80;0.30;;;18.40;99.90;;;;;;5046165;28;20493;-79
2022/07/22 12:37:40;;;;;;;2.95;0.10;;;18.30;99.90;;;;;;5047275;28;20079;-81
2022/07/22 12:40:10;;;;;;;1.17;0.20;;;18.30;99.90;;;;;;5043556;28;20045;-80
2022/07/22 12:42:39;;;;;;;1.08;0.28;;;18.30;99.90;;;;;;5040009;28;20060;-78
2022/07/22 12:45:09;;;;;;;1.17;0.15;;;18.30;99.90;;;;;;5029436;28;20037;-79
2022/07/22 12:47:55;;;;;;;2.70;0.25;;;18.30;99.90;;;;;;5031682;28;20045;-79
2022/07/22 12:50:29;;;;;;;2.20;0.20;;;18.40;99.90;;;;;;5039892;28;20118;-80
2022/07/22 12:52:57;;;;;;;2.00;0.20;;;18.40;99.90;;;;;;5048258;28;20049;-81
2022/07/22 12:55:23;;;;;;;1.55;0.10;;;18.40;99.90;;;;;;5040150;28;20398;-78
2022/07/22 12:57:49;;;;;;;0.10;0.10;;;18.40;99.90;;;;;;5028079;28;20056;-76